Terminal Aerodrome Forecast
Issued by NWS

Home | Current Version | Previous Version | Text Only | Print | Product List | Glossary On
Versions: 1 2 3 4 5 6 7 8 9 10 11 12 13 14 15 16 17 18 19 20
000
FTUS44 KLZK 212300
TAFADF
TAF
KADF 212340Z 2200/2224 35006KT P6SM FEW050 SCT100
     FM220200 01006KT P6SM SCT250
     FM221400 05008KT P6SM SKC=

USA.gov is the U.S. government's official web portal to all federal, state and local government web resources and services.